VOZ1227 YSCB-YBBN
Flight info
| Callsign | VOZ1227 |
|---|---|
| Flight time | 1h 29m |
| Altitude | 38000 |
| Route | AVBEG W184 MUDGI/N0459F370 H66 BLAKA |
| Aircraft | B38M/M-SDE1FGHILORVWXY/HB1 |
Departure
| Time | 2026-05-05 11:15 |
|---|---|
| Airport | Canberra Airport (YSCB) |
Arrival
| Time | 2026-05-05 12:45 |
|---|---|
| Airport | Brisbane International Airport (YBBN) |
| Time | Latitude | Longitude | Altitude | Speed | Heading |
|---|---|---|---|---|---|
| 2026-05-05 10:44 | -35.30649 | 149.19061 | 1882 ft | 0 kts | 220° |
| 2026-05-05 11:04 | -35.30639 | 149.19071 | 1879 ft | 2 kts | 219° |
| 2026-05-05 11:04 | -35.30627 | 149.19084 | 1879 ft | 2 kts | 219° |
| 2026-05-05 11:04 | -35.30614 | 149.19097 | 1880 ft | 2 kts | 219° |
| 2026-05-05 11:05 | -35.30600 | 149.19104 | 1878 ft | 2 kts | 147° |
| 2026-05-05 11:05 | -35.30593 | 149.19097 | 1879 ft | 0 kts | 132° |
| 2026-05-05 11:08 | -35.30594 | 149.19099 | 1879 ft | 1 kts | 130° |
| 2026-05-05 11:08 | -35.30612 | 149.19126 | 1880 ft | 7 kts | 130° |
| 2026-05-05 11:08 | -35.30664 | 149.19201 | 1880 ft | 15 kts | 134° |
| 2026-05-05 11:08 | -35.30747 | 149.19239 | 1882 ft | 12 kts | 179° |
| 2026-05-05 11:09 | -35.30837 | 149.19239 | 1882 ft | 14 kts | 180° |
| 2026-05-05 11:09 | -35.30941 | 149.19240 | 1880 ft | 16 kts | 179° |
| 2026-05-05 11:09 | -35.31051 | 149.19241 | 1882 ft | 16 kts | 180° |
| 2026-05-05 11:09 | -35.31169 | 149.19238 | 1879 ft | 17 kts | 179° |
| 2026-05-05 11:10 | -35.31293 | 149.19239 | 1882 ft | 19 kts | 179° |
| 2026-05-05 11:10 | -35.31428 | 149.19241 | 1882 ft | 19 kts | 180° |
| 2026-05-05 11:10 | -35.31560 | 149.19240 | 1879 ft | 19 kts | 180° |
| 2026-05-05 11:10 | -35.31699 | 149.19240 | 1882 ft | 21 kts | 180° |
| 2026-05-05 11:11 | -35.31839 | 149.19240 | 1881 ft | 20 kts | 180° |
| 2026-05-05 11:11 | -35.31947 | 149.19249 | 1882 ft | 13 kts | 162° |
| 2026-05-05 11:11 | -35.31998 | 149.19302 | 1879 ft | 0 kts | 114° |
| 2026-05-05 11:14 | -35.31999 | 149.19305 | 1879 ft | 3 kts | 114° |
| 2026-05-05 11:14 | -35.32010 | 149.19382 | 1882 ft | 11 kts | 91° |
| 2026-05-05 11:14 | -35.31980 | 149.19446 | 1882 ft | 9 kts | 1° |
| 2026-05-05 11:14 | -35.31905 | 149.19446 | 1882 ft | 16 kts | 0° |
| 2026-05-05 11:15 | -35.31553 | 149.19446 | 1882 ft | 88 kts | 360° |
| 2026-05-05 11:15 | -35.30708 | 149.19445 | 1887 ft | 149 kts | 1° |
| 2026-05-05 11:15 | -35.29628 | 149.19452 | 2385 ft | 161 kts | 2° |
| 2026-05-05 11:15 | -35.28479 | 149.19481 | 3128 ft | 166 kts | 3° |
| 2026-05-05 11:16 | -35.27310 | 149.19636 | 3831 ft | 175 kts | 5° |
| 2026-05-05 11:16 | -35.26034 | 149.19822 | 4344 ft | 195 kts | 7° |
| 2026-05-05 11:16 | -35.24627 | 149.20006 | 4962 ft | 210 kts | 7° |
| 2026-05-05 11:16 | -35.23144 | 149.20189 | 5629 ft | 223 kts | 7° |
| 2026-05-05 11:17 | -35.21541 | 149.20364 | 6264 ft | 240 kts | 7° |
| 2026-05-05 11:17 | -35.19802 | 149.20559 | 6827 ft | 261 kts | 7° |
| 2026-05-05 11:17 | -35.17930 | 149.20773 | 7403 ft | 279 kts | 6° |
| 2026-05-05 11:17 | -35.15959 | 149.21001 | 8218 ft | 286 kts | 6° |
| 2026-05-05 11:18 | -35.13963 | 149.21234 | 9153 ft | 292 kts | 5° |
| 2026-05-05 11:18 | -35.11910 | 149.21317 | 9971 ft | 298 kts | 350° |
| 2026-05-05 11:18 | -35.09956 | 149.20497 | 10744 ft | 303 kts | 332° |
| 2026-05-05 11:18 | -35.07998 | 149.19342 | 11182 ft | 322 kts | 332° |
| 2026-05-05 11:19 | -35.05919 | 149.18106 | 11551 ft | 342 kts | 332° |
| 2026-05-05 11:19 | -35.03775 | 149.16821 | 12102 ft | 354 kts | 332° |
| 2026-05-05 11:19 | -35.01560 | 149.15488 | 12924 ft | 356 kts | 332° |
| 2026-05-05 11:19 | -34.99325 | 149.14140 | 13737 ft | 360 kts | 332° |
| 2026-05-05 11:20 | -34.97071 | 149.12781 | 14507 ft | 363 kts | 332° |
| 2026-05-05 11:20 | -34.94792 | 149.11407 | 15258 ft | 366 kts | 332° |
| 2026-05-05 11:20 | -34.92505 | 149.10028 | 16006 ft | 369 kts | 331° |
| 2026-05-05 11:20 | -34.90198 | 149.08640 | 16729 ft | 372 kts | 331° |
| 2026-05-05 11:21 | -34.87869 | 149.07238 | 17457 ft | 374 kts | 331° |
| 2026-05-05 11:21 | -34.85522 | 149.05830 | 18164 ft | 378 kts | 332° |
| 2026-05-05 11:21 | -34.82990 | 149.04907 | 18822 ft | 385 kts | 350° |
| 2026-05-05 11:21 | -34.80317 | 149.04975 | 19419 ft | 393 kts | 7° |
| 2026-05-05 11:22 | -34.77611 | 149.05593 | 19992 ft | 397 kts | 8° |
| 2026-05-05 11:22 | -34.74885 | 149.06236 | 20558 ft | 401 kts | 8° |
| 2026-05-05 11:22 | -34.72142 | 149.06903 | 21128 ft | 404 kts | 8° |
| 2026-05-05 11:22 | -34.69370 | 149.07584 | 21685 ft | 407 kts | 8° |
| 2026-05-05 11:23 | -34.66575 | 149.08276 | 22231 ft | 410 kts | 8° |
| 2026-05-05 11:23 | -34.63768 | 149.08972 | 22795 ft | 414 kts | 8° |
| 2026-05-05 11:23 | -34.60930 | 149.09677 | 23331 ft | 417 kts | 8° |
| 2026-05-05 11:23 | -34.58081 | 149.10384 | 23858 ft | 420 kts | 8° |
| 2026-05-05 11:24 | -34.55242 | 149.11089 | 24281 ft | 423 kts | 8° |
| 2026-05-05 11:24 | -34.52343 | 149.11808 | 24734 ft | 425 kts | 8° |
| 2026-05-05 11:24 | -34.49429 | 149.12530 | 25175 ft | 428 kts | 8° |
| 2026-05-05 11:24 | -34.46503 | 149.13256 | 25599 ft | 430 kts | 8° |
| 2026-05-05 11:25 | -34.43562 | 149.13984 | 26044 ft | 432 kts | 8° |
| 2026-05-05 11:25 | -34.40602 | 149.14716 | 26472 ft | 435 kts | 8° |
| 2026-05-05 11:25 | -34.37631 | 149.15451 | 26887 ft | 437 kts | 8° |
| 2026-05-05 11:25 | -34.34644 | 149.16189 | 27296 ft | 440 kts | 8° |
| 2026-05-05 11:26 | -34.31672 | 149.16923 | 27688 ft | 442 kts | 8° |
| 2026-05-05 11:26 | -34.28643 | 149.17670 | 28085 ft | 444 kts | 8° |
| 2026-05-05 11:26 | -34.25603 | 149.18420 | 28474 ft | 447 kts | 8° |
| 2026-05-05 11:26 | -34.22543 | 149.19174 | 28858 ft | 449 kts | 8° |
| 2026-05-05 11:27 | -34.19474 | 149.19929 | 29238 ft | 451 kts | 8° |
| 2026-05-05 11:27 | -34.16382 | 149.20690 | 29614 ft | 454 kts | 8° |
| 2026-05-05 11:27 | -34.13283 | 149.21452 | 29970 ft | 456 kts | 8° |
| 2026-05-05 11:27 | -34.10166 | 149.22217 | 30328 ft | 458 kts | 8° |
| 2026-05-05 11:28 | -34.07024 | 149.22988 | 30628 ft | 461 kts | 8° |
| 2026-05-05 11:28 | -34.03876 | 149.23760 | 30946 ft | 462 kts | 8° |
| 2026-05-05 11:28 | -34.00763 | 149.24523 | 31331 ft | 461 kts | 7° |
| 2026-05-05 11:28 | -33.97627 | 149.25291 | 31779 ft | 459 kts | 7° |
| 2026-05-05 11:29 | -33.94496 | 149.26057 | 32238 ft | 457 kts | 7° |
| 2026-05-05 11:29 | -33.91380 | 149.26819 | 32688 ft | 455 kts | 7° |
| 2026-05-05 11:29 | -33.88277 | 149.27577 | 33152 ft | 453 kts | 6° |
| 2026-05-05 11:29 | -33.85197 | 149.28329 | 33596 ft | 451 kts | 6° |
| 2026-05-05 11:30 | -33.82128 | 149.29078 | 34044 ft | 448 kts | 5° |
| 2026-05-05 11:30 | -33.79083 | 149.29821 | 34505 ft | 445 kts | 5° |
| 2026-05-05 11:30 | -33.76048 | 149.30560 | 34846 ft | 444 kts | 5° |
| 2026-05-05 11:30 | -33.73023 | 149.31297 | 35145 ft | 444 kts | 5° |
| 2026-05-05 11:31 | -33.69989 | 149.32035 | 35440 ft | 444 kts | 5° |
| 2026-05-05 11:31 | -33.66988 | 149.32765 | 35703 ft | 444 kts | 5° |
| 2026-05-05 11:31 | -33.63956 | 149.33502 | 35982 ft | 444 kts | 5° |
| 2026-05-05 11:31 | -33.60927 | 149.34237 | 36245 ft | 443 kts | 5° |
| 2026-05-05 11:32 | -33.57903 | 149.34970 | 36548 ft | 442 kts | 5° |
| 2026-05-05 11:32 | -33.54921 | 149.35693 | 36799 ft | 442 kts | 5° |
| 2026-05-05 11:32 | -33.51902 | 149.36425 | 37040 ft | 442 kts | 5° |
| 2026-05-05 11:32 | -33.48891 | 149.37154 | 37275 ft | 442 kts | 4° |
| 2026-05-05 11:33 | -33.45873 | 149.37884 | 37522 ft | 442 kts | 4° |
| 2026-05-05 11:33 | -33.42860 | 149.38612 | 37737 ft | 442 kts | 4° |
| 2026-05-05 11:33 | -33.39835 | 149.39343 | 37949 ft | 441 kts | 4° |
| 2026-05-05 11:33 | -33.36836 | 149.40067 | 38185 ft | 441 kts | 4° |
| 2026-05-05 11:34 | -33.33823 | 149.40793 | 38291 ft | 442 kts | 4° |
| 2026-05-05 11:34 | -33.27802 | 149.42244 | 38264 ft | 444 kts | 4° |
| 2026-05-05 11:35 | -33.21726 | 149.43706 | 38277 ft | 444 kts | 4° |
| 2026-05-05 11:35 | -33.15664 | 149.45163 | 38269 ft | 444 kts | 4° |
| 2026-05-05 11:36 | -33.09615 | 149.46615 | 38258 ft | 443 kts | 4° |
| 2026-05-05 11:36 | -33.03594 | 149.48057 | 38261 ft | 444 kts | 4° |
| 2026-05-05 11:37 | -32.97530 | 149.49508 | 38252 ft | 444 kts | 4° |
| 2026-05-05 11:37 | -32.91481 | 149.50953 | 38255 ft | 443 kts | 4° |
| 2026-05-05 11:38 | -32.85447 | 149.52393 | 38258 ft | 443 kts | 4° |
| 2026-05-05 11:38 | -32.79438 | 149.53825 | 38245 ft | 443 kts | 4° |
| 2026-05-05 11:39 | -32.73384 | 149.55266 | 38242 ft | 442 kts | 4° |
| 2026-05-05 11:39 | -32.68381 | 149.56456 | 38240 ft | 441 kts | 4° |
| 2026-05-05 11:40 | -32.62366 | 149.57884 | 38237 ft | 441 kts | 4° |
| 2026-05-05 11:40 | -32.55475 | 149.60206 | 38208 ft | 457 kts | 23° |
| 2026-05-05 11:41 | -32.51025 | 149.63735 | 38225 ft | 464 kts | 26° |
| 2026-05-05 11:41 | -32.48368 | 149.65921 | 38099 ft | 465 kts | 27° |
| 2026-05-05 11:41 | -32.45726 | 149.68121 | 37918 ft | 464 kts | 27° |
| 2026-05-05 11:41 | -32.43084 | 149.70335 | 37663 ft | 463 kts | 27° |
| 2026-05-05 11:42 | -32.40454 | 149.72544 | 37396 ft | 463 kts | 27° |
| 2026-05-05 11:42 | -32.37832 | 149.74747 | 37219 ft | 462 kts | 27° |
| 2026-05-05 11:42 | -32.35245 | 149.76919 | 37209 ft | 463 kts | 27° |
| 2026-05-05 11:43 | -32.29993 | 149.81324 | 37220 ft | 462 kts | 27° |
| 2026-05-05 11:43 | -32.24743 | 149.85721 | 37222 ft | 462 kts | 27° |
| 2026-05-05 11:44 | -32.19497 | 149.90108 | 37228 ft | 462 kts | 27° |
| 2026-05-05 11:44 | -32.14275 | 149.94470 | 37220 ft | 462 kts | 27° |
| 2026-05-05 11:45 | -32.09024 | 149.98849 | 37216 ft | 462 kts | 27° |
| 2026-05-05 11:45 | -32.03767 | 150.03227 | 37218 ft | 462 kts | 27° |
| 2026-05-05 11:46 | -31.98523 | 150.07588 | 37220 ft | 462 kts | 27° |
| 2026-05-05 11:46 | -31.93309 | 150.11917 | 37216 ft | 460 kts | 26° |
| 2026-05-05 11:47 | -31.88076 | 150.16255 | 37232 ft | 460 kts | 26° |
| 2026-05-05 11:47 | -31.82838 | 150.20600 | 37208 ft | 459 kts | 26° |
| 2026-05-05 11:48 | -31.74977 | 150.27091 | 37201 ft | 459 kts | 25° |
| 2026-05-05 11:48 | -31.69778 | 150.31379 | 37209 ft | 459 kts | 25° |
| 2026-05-05 11:49 | -31.64552 | 150.35685 | 37203 ft | 458 kts | 25° |
| 2026-05-05 11:49 | -31.59332 | 150.39979 | 37210 ft | 458 kts | 25° |
| 2026-05-05 11:50 | -31.54102 | 150.44275 | 37198 ft | 458 kts | 25° |
| 2026-05-05 11:50 | -31.48878 | 150.48562 | 37200 ft | 458 kts | 25° |
| 2026-05-05 11:51 | -31.43680 | 150.52821 | 37206 ft | 459 kts | 25° |
| 2026-05-05 11:51 | -31.38449 | 150.57101 | 37206 ft | 459 kts | 25° |
| 2026-05-05 11:52 | -31.33218 | 150.61374 | 37198 ft | 458 kts | 25° |
| 2026-05-05 11:52 | -31.27974 | 150.65653 | 37195 ft | 459 kts | 25° |
| 2026-05-05 11:53 | -31.22741 | 150.69917 | 37189 ft | 459 kts | 25° |
| 2026-05-05 11:53 | -31.17538 | 150.74151 | 37181 ft | 459 kts | 25° |
| 2026-05-05 11:54 | -31.12295 | 150.78410 | 37187 ft | 460 kts | 24° |
| 2026-05-05 11:54 | -31.07041 | 150.82701 | 37179 ft | 463 kts | 27° |
| 2026-05-05 11:55 | -31.02127 | 150.87708 | 37190 ft | 470 kts | 31° |
| 2026-05-05 11:55 | -30.97244 | 150.92787 | 37180 ft | 470 kts | 31° |
| 2026-05-05 11:56 | -30.92385 | 150.97835 | 37169 ft | 471 kts | 31° |
| 2026-05-05 11:56 | -30.87506 | 151.02908 | 37190 ft | 470 kts | 31° |
| 2026-05-05 11:57 | -30.82575 | 151.08023 | 37181 ft | 472 kts | 31° |
| 2026-05-05 11:57 | -30.77701 | 151.13072 | 37187 ft | 473 kts | 31° |
| 2026-05-05 11:58 | -30.72788 | 151.18154 | 37188 ft | 472 kts | 31° |
| 2026-05-05 11:58 | -30.67871 | 151.23231 | 37186 ft | 472 kts | 31° |
| 2026-05-05 11:59 | -30.62953 | 151.28304 | 37186 ft | 472 kts | 31° |
| 2026-05-05 11:59 | -30.58072 | 151.33331 | 37183 ft | 471 kts | 30° |
| 2026-05-05 12:00 | -30.53147 | 151.38396 | 37189 ft | 475 kts | 31° |
| 2026-05-05 12:00 | -30.48197 | 151.43480 | 37186 ft | 475 kts | 31° |
| 2026-05-05 12:01 | -30.43252 | 151.48551 | 37189 ft | 475 kts | 31° |
| 2026-05-05 12:01 | -30.38327 | 151.53595 | 37183 ft | 475 kts | 31° |
| 2026-05-05 12:02 | -30.33381 | 151.58654 | 37177 ft | 474 kts | 31° |
| 2026-05-05 12:02 | -30.28434 | 151.63705 | 37164 ft | 474 kts | 30° |
| 2026-05-05 12:03 | -30.23487 | 151.68750 | 37184 ft | 474 kts | 30° |
| 2026-05-05 12:03 | -30.18560 | 151.73767 | 37186 ft | 474 kts | 30° |
| 2026-05-05 12:04 | -30.13600 | 151.78811 | 37184 ft | 474 kts | 30° |
| 2026-05-05 12:04 | -30.08641 | 151.83848 | 37183 ft | 474 kts | 30° |
| 2026-05-05 12:05 | -30.03696 | 151.88862 | 37177 ft | 474 kts | 30° |
| 2026-05-05 12:05 | -29.98757 | 151.93827 | 37173 ft | 473 kts | 30° |
| 2026-05-05 12:06 | -29.93808 | 151.98866 | 37181 ft | 473 kts | 30° |
| 2026-05-05 12:06 | -29.88857 | 152.03867 | 37189 ft | 472 kts | 30° |
| 2026-05-05 12:07 | -29.83917 | 152.08852 | 37185 ft | 473 kts | 30° |
| 2026-05-05 12:07 | -29.78955 | 152.13849 | 37180 ft | 473 kts | 30° |
| 2026-05-05 12:08 | -29.74034 | 152.18800 | 37170 ft | 472 kts | 29° |
| 2026-05-05 12:08 | -29.69083 | 152.23763 | 37224 ft | 472 kts | 29° |
| 2026-05-05 12:09 | -29.64133 | 152.28738 | 37171 ft | 472 kts | 29° |
| 2026-05-05 12:09 | -29.59192 | 152.33705 | 37176 ft | 471 kts | 28° |
| 2026-05-05 12:10 | -29.54270 | 152.38609 | 37158 ft | 471 kts | 28° |
| 2026-05-05 12:10 | -29.49322 | 152.43551 | 37175 ft | 470 kts | 28° |
| 2026-05-05 12:11 | -29.44388 | 152.48471 | 37164 ft | 470 kts | 28° |
| 2026-05-05 12:11 | -29.39481 | 152.53362 | 37166 ft | 470 kts | 28° |
| 2026-05-05 12:12 | -29.34532 | 152.58288 | 37168 ft | 470 kts | 28° |
| 2026-05-05 12:12 | -29.29595 | 152.63192 | 37168 ft | 470 kts | 28° |
| 2026-05-05 12:13 | -29.24682 | 152.68067 | 37161 ft | 469 kts | 28° |
| 2026-05-05 12:13 | -29.19745 | 152.72961 | 37162 ft | 469 kts | 28° |
| 2026-05-05 12:14 | -29.14802 | 152.77853 | 37156 ft | 469 kts | 28° |
| 2026-05-05 12:14 | -29.09870 | 152.82729 | 36907 ft | 463 kts | 27° |
| 2026-05-05 12:15 | -29.07473 | 152.85095 | 36339 ft | 460 kts | 28° |
| 2026-05-05 12:15 | -29.05056 | 152.87480 | 35769 ft | 458 kts | 28° |
| 2026-05-05 12:15 | -29.02656 | 152.89847 | 35261 ft | 454 kts | 28° |
| 2026-05-05 12:15 | -29.00275 | 152.92193 | 34773 ft | 450 kts | 28° |
| 2026-05-05 12:16 | -28.97915 | 152.94518 | 34275 ft | 446 kts | 28° |
| 2026-05-05 12:16 | -28.95572 | 152.96823 | 33710 ft | 443 kts | 28° |
| 2026-05-05 12:16 | -28.93237 | 152.99120 | 33167 ft | 440 kts | 28° |
| 2026-05-05 12:16 | -28.90937 | 153.01382 | 32650 ft | 436 kts | 28° |
| 2026-05-05 12:17 | -28.88610 | 153.03540 | 32150 ft | 420 kts | 20° |
| 2026-05-05 12:17 | -28.86059 | 153.04870 | 31593 ft | 391 kts | 4° |
| 2026-05-05 12:17 | -28.83445 | 153.05662 | 31166 ft | 385 kts | 3° |
| 2026-05-05 12:17 | -28.80903 | 153.06408 | 30777 ft | 379 kts | 2° |
| 2026-05-05 12:18 | -28.78348 | 153.07115 | 30357 ft | 376 kts | 1° |
| 2026-05-05 12:18 | -28.75825 | 153.07793 | 30084 ft | 368 kts | 1° |
| 2026-05-05 12:18 | -28.73309 | 153.08453 | 29910 ft | 375 kts | 1° |
| 2026-05-05 12:18 | -28.70715 | 153.09126 | 29737 ft | 389 kts | 2° |
| 2026-05-05 12:19 | -28.68045 | 153.09818 | 29584 ft | 400 kts | 2° |
| 2026-05-05 12:19 | -28.65315 | 153.10524 | 29333 ft | 404 kts | 2° |
| 2026-05-05 12:19 | -28.62583 | 153.11228 | 29158 ft | 402 kts | 2° |
| 2026-05-05 12:19 | -28.59851 | 153.11933 | 28831 ft | 402 kts | 3° |
| 2026-05-05 12:20 | -28.57130 | 153.12636 | 28273 ft | 399 kts | 3° |
| 2026-05-05 12:20 | -28.54432 | 153.13331 | 27753 ft | 396 kts | 3° |
| 2026-05-05 12:20 | -28.51755 | 153.14020 | 27268 ft | 393 kts | 4° |
| 2026-05-05 12:20 | -28.49091 | 153.14706 | 26776 ft | 390 kts | 4° |
| 2026-05-05 12:21 | -28.46487 | 153.15372 | 26252 ft | 387 kts | 4° |
| 2026-05-05 12:21 | -28.43878 | 153.16044 | 25847 ft | 383 kts | 4° |
| 2026-05-05 12:21 | -28.41284 | 153.16711 | 25380 ft | 380 kts | 4° |
| 2026-05-05 12:21 | -28.38708 | 153.17374 | 24930 ft | 379 kts | 5° |
| 2026-05-05 12:22 | -28.36135 | 153.18034 | 24467 ft | 378 kts | 5° |
| 2026-05-05 12:22 | -28.33572 | 153.18692 | 24012 ft | 378 kts | 5° |
| 2026-05-05 12:22 | -28.31005 | 153.19348 | 23470 ft | 377 kts | 6° |
| 2026-05-05 12:22 | -28.28453 | 153.20002 | 23014 ft | 375 kts | 6° |
| 2026-05-05 12:23 | -28.25912 | 153.20654 | 22552 ft | 373 kts | 6° |
| 2026-05-05 12:23 | -28.23426 | 153.21292 | 22153 ft | 370 kts | 6° |
| 2026-05-05 12:23 | -28.20923 | 153.21930 | 21668 ft | 367 kts | 6° |
| 2026-05-05 12:23 | -28.18431 | 153.22382 | 21195 ft | 360 kts | 2° |
| 2026-05-05 12:24 | -28.15960 | 153.22813 | 20792 ft | 358 kts | 2° |
| 2026-05-05 12:24 | -28.13497 | 153.23248 | 20328 ft | 357 kts | 2° |
| 2026-05-05 12:24 | -28.11041 | 153.23684 | 19904 ft | 357 kts | 2° |
| 2026-05-05 12:24 | -28.08593 | 153.24120 | 19455 ft | 355 kts | 2° |
| 2026-05-05 12:25 | -28.06157 | 153.24554 | 19029 ft | 353 kts | 4° |
| 2026-05-05 12:25 | -28.03735 | 153.24986 | 18628 ft | 351 kts | 3° |
| 2026-05-05 12:25 | -28.01357 | 153.25405 | 18181 ft | 350 kts | 3° |
| 2026-05-05 12:25 | -27.98950 | 153.25820 | 17700 ft | 349 kts | 3° |
| 2026-05-05 12:26 | -27.96563 | 153.26233 | 17306 ft | 346 kts | 4° |
| 2026-05-05 12:26 | -27.94193 | 153.26643 | 16914 ft | 343 kts | 4° |
| 2026-05-05 12:26 | -27.91839 | 153.27050 | 16528 ft | 341 kts | 4° |
| 2026-05-05 12:26 | -27.89503 | 153.27454 | 16149 ft | 338 kts | 5° |
| 2026-05-05 12:27 | -27.87184 | 153.27854 | 15775 ft | 336 kts | 5° |
| 2026-05-05 12:27 | -27.84882 | 153.28252 | 15374 ft | 334 kts | 5° |
| 2026-05-05 12:27 | -27.82585 | 153.28649 | 14994 ft | 333 kts | 6° |
| 2026-05-05 12:27 | -27.80327 | 153.29038 | 14638 ft | 331 kts | 6° |
| 2026-05-05 12:28 | -27.78057 | 153.29430 | 14286 ft | 329 kts | 6° |
| 2026-05-05 12:28 | -27.75799 | 153.29819 | 13930 ft | 327 kts | 7° |
| 2026-05-05 12:28 | -27.73536 | 153.30209 | 13539 ft | 331 kts | 7° |
| 2026-05-05 12:28 | -27.71240 | 153.30603 | 13155 ft | 335 kts | 6° |
| 2026-05-05 12:29 | -27.69706 | 153.30672 | 12981 ft | 334 kts | 352° |
| 2026-05-05 12:29 | -27.67410 | 153.30280 | 12871 ft | 336 kts | 356° |
| 2026-05-05 12:29 | -27.65096 | 153.30653 | 12793 ft | 339 kts | 18° |
| 2026-05-05 12:29 | -27.62500 | 153.32594 | 12711 ft | 343 kts | 47° |
| 2026-05-05 12:30 | -27.61575 | 153.34083 | 12653 ft | 345 kts | 62° |
| 2026-05-05 12:30 | -27.60808 | 153.36647 | 12520 ft | 347 kts | 75° |
| 2026-05-05 12:30 | -27.59893 | 153.39150 | 12143 ft | 346 kts | 56° |
| 2026-05-05 12:30 | -27.58366 | 153.41229 | 11722 ft | 343 kts | 42° |
| 2026-05-05 12:31 | -27.56497 | 153.42815 | 11431 ft | 338 kts | 32° |
| 2026-05-05 12:31 | -27.54495 | 153.44203 | 11233 ft | 338 kts | 30° |
| 2026-05-05 12:31 | -27.52426 | 153.45491 | 11048 ft | 339 kts | 27° |
| 2026-05-05 12:31 | -27.50341 | 153.46692 | 10864 ft | 334 kts | 26° |
| 2026-05-05 12:32 | -27.48275 | 153.47825 | 10684 ft | 326 kts | 26° |
| 2026-05-05 12:32 | -27.46271 | 153.48898 | 10509 ft | 310 kts | 25° |
| 2026-05-05 12:32 | -27.44346 | 153.49913 | 10373 ft | 304 kts | 25° |
| 2026-05-05 12:32 | -27.42337 | 153.50599 | 10205 ft | 302 kts | 4° |
| 2026-05-05 12:33 | -27.40270 | 153.50571 | 10075 ft | 302 kts | 359° |
| 2026-05-05 12:33 | -27.38167 | 153.50519 | 9930 ft | 301 kts | 359° |
| 2026-05-05 12:33 | -27.36069 | 153.50457 | 9766 ft | 301 kts | 359° |
| 2026-05-05 12:33 | -27.33978 | 153.50388 | 9610 ft | 300 kts | 358° |
| 2026-05-05 12:34 | -27.31889 | 153.50315 | 9444 ft | 299 kts | 358° |
| 2026-05-05 12:34 | -27.29809 | 153.50240 | 9289 ft | 299 kts | 358° |
| 2026-05-05 12:34 | -27.27731 | 153.50160 | 9133 ft | 298 kts | 358° |
| 2026-05-05 12:34 | -27.25654 | 153.50066 | 8979 ft | 298 kts | 358° |
| 2026-05-05 12:35 | -27.23619 | 153.49976 | 8821 ft | 297 kts | 358° |
| 2026-05-05 12:35 | -27.21560 | 153.49884 | 8662 ft | 296 kts | 358° |
| 2026-05-05 12:35 | -27.19500 | 153.49793 | 8404 ft | 296 kts | 358° |
| 2026-05-05 12:35 | -27.17434 | 153.49660 | 7821 ft | 297 kts | 350° |
| 2026-05-05 12:36 | -27.15539 | 153.48808 | 7301 ft | 293 kts | 323° |
| 2026-05-05 12:36 | -27.14171 | 153.47167 | 6848 ft | 286 kts | 302° |
| 2026-05-05 12:36 | -27.13091 | 153.45312 | 6445 ft | 283 kts | 302° |
| 2026-05-05 12:36 | -27.12023 | 153.43460 | 6099 ft | 283 kts | 301° |
| 2026-05-05 12:37 | -27.10976 | 153.41628 | 5847 ft | 273 kts | 301° |
| 2026-05-05 12:37 | -27.09990 | 153.39890 | 5653 ft | 263 kts | 301° |
| 2026-05-05 12:37 | -27.09014 | 153.38163 | 5482 ft | 262 kts | 301° |
| 2026-05-05 12:37 | -27.08048 | 153.36433 | 5288 ft | 262 kts | 298° |
| 2026-05-05 12:38 | -27.07541 | 153.34504 | 5064 ft | 256 kts | 268° |
| 2026-05-05 12:38 | -27.07918 | 153.32597 | 4871 ft | 249 kts | 240° |
| 2026-05-05 12:38 | -27.08892 | 153.31006 | 4733 ft | 248 kts | 229° |
| 2026-05-05 12:38 | -27.09957 | 153.29480 | 4566 ft | 248 kts | 229° |
| 2026-05-05 12:39 | -27.11038 | 153.27970 | 4380 ft | 248 kts | 228° |
| 2026-05-05 12:39 | -27.12164 | 153.26507 | 4187 ft | 246 kts | 221° |
| 2026-05-05 12:39 | -27.13452 | 153.25306 | 4027 ft | 244 kts | 212° |
| 2026-05-05 12:39 | -27.14876 | 153.24277 | 3848 ft | 243 kts | 208° |
| 2026-05-05 12:40 | -27.16318 | 153.23343 | 3721 ft | 235 kts | 206° |
| 2026-05-05 12:40 | -27.17743 | 153.22476 | 3533 ft | 230 kts | 205° |
| 2026-05-05 12:40 | -27.19146 | 153.21654 | 3359 ft | 223 kts | 204° |
| 2026-05-05 12:40 | -27.20488 | 153.20879 | 3159 ft | 212 kts | 204° |
| 2026-05-05 12:41 | -27.21784 | 153.20134 | 2924 ft | 206 kts | 204° |
| 2026-05-05 12:41 | -27.23043 | 153.19413 | 2690 ft | 200 kts | 204° |
| 2026-05-05 12:41 | -27.24252 | 153.18722 | 2441 ft | 195 kts | 204° |
| 2026-05-05 12:41 | -27.25448 | 153.18038 | 2198 ft | 192 kts | 204° |
| 2026-05-05 12:42 | -27.26632 | 153.17361 | 1960 ft | 188 kts | 204° |
| 2026-05-05 12:42 | -27.27739 | 153.16728 | 1734 ft | 169 kts | 204° |
| 2026-05-05 12:42 | -27.28774 | 153.16136 | 1511 ft | 166 kts | 204° |
| 2026-05-05 12:42 | -27.29796 | 153.15552 | 1322 ft | 160 kts | 204° |
| 2026-05-05 12:43 | -27.30771 | 153.14994 | 1081 ft | 154 kts | 205° |
| 2026-05-05 12:43 | -27.31720 | 153.14452 | 889 ft | 152 kts | 205° |
| 2026-05-05 12:43 | -27.32648 | 153.13922 | 704 ft | 151 kts | 205° |
| 2026-05-05 12:43 | -27.33577 | 153.13390 | 507 ft | 149 kts | 206° |
| 2026-05-05 12:44 | -27.34491 | 153.12868 | 316 ft | 145 kts | 206° |
| 2026-05-05 12:44 | -27.35378 | 153.12357 | 115 ft | 141 kts | 207° |
| 2026-05-05 12:44 | -27.36206 | 153.11883 | 23 ft | 112 kts | 207° |
| 2026-05-05 12:44 | -27.36678 | 153.11611 | 21 ft | 56 kts | 207° |
| 2026-05-05 12:45 | -27.37022 | 153.11416 | 23 ft | 47 kts | 206° |
| 2026-05-05 12:45 | -27.37206 | 153.11339 | 21 ft | 21 kts | 191° |
| 2026-05-05 12:45 | -27.37347 | 153.11332 | 21 ft | 18 kts | 180° |
| 2026-05-05 12:45 | -27.37471 | 153.11333 | 20 ft | 15 kts | 179° |
| 2026-05-05 12:46 | -27.37513 | 153.11367 | 21 ft | 5 kts | 113° |
| 2026-05-05 12:46 | -27.37514 | 153.11369 | 21 ft | 0 kts | 113° |
| 2026-05-05 12:46 | -27.37514 | 153.11370 | 21 ft | 0 kts | 113° |
| 2026-05-05 12:47 | -27.37514 | 153.11371 | 21 ft | 0 kts | 113° |
| 2026-05-05 12:47 | -27.37521 | 153.11388 | 20 ft | 8 kts | 113° |
| 2026-05-05 12:47 | -27.37504 | 153.11465 | 21 ft | 14 kts | 33° |
| 2026-05-05 12:48 | -27.37416 | 153.11521 | 20 ft | 14 kts | 50° |
| 2026-05-05 12:48 | -27.37430 | 153.11625 | 20 ft | 16 kts | 116° |
| 2026-05-05 12:48 | -27.37482 | 153.11741 | 20 ft | 18 kts | 117° |
| 2026-05-05 12:48 | -27.37540 | 153.11870 | 20 ft | 20 kts | 116° |
| 2026-05-05 12:49 | -27.37605 | 153.12012 | 21 ft | 21 kts | 117° |
| 2026-05-05 12:49 | -27.37674 | 153.12162 | 20 ft | 22 kts | 117° |
| 2026-05-05 12:49 | -27.37746 | 153.12317 | 22 ft | 20 kts | 117° |
| 2026-05-05 12:49 | -27.37815 | 153.12464 | 20 ft | 22 kts | 117° |
| 2026-05-05 12:50 | -27.37885 | 153.12624 | 20 ft | 21 kts | 116° |
| 2026-05-05 12:50 | -27.37945 | 153.12747 | 20 ft | 15 kts | 129° |
| 2026-05-05 12:50 | -27.38038 | 153.12739 | 22 ft | 15 kts | 210° |
| 2026-05-05 12:50 | -27.38138 | 153.12680 | 20 ft | 17 kts | 206° |
| 2026-05-05 12:51 | -27.38250 | 153.12616 | 20 ft | 19 kts | 207° |
| 2026-05-05 12:51 | -27.38375 | 153.12543 | 20 ft | 21 kts | 207° |
| 2026-05-05 12:51 | -27.38494 | 153.12476 | 20 ft | 17 kts | 207° |
| 2026-05-05 12:51 | -27.38606 | 153.12412 | 20 ft | 18 kts | 207° |
| 2026-05-05 12:52 | -27.38722 | 153.12346 | 20 ft | 20 kts | 207° |
| 2026-05-05 12:52 | -27.38844 | 153.12276 | 20 ft | 21 kts | 207° |
| 2026-05-05 12:52 | -27.38971 | 153.12203 | 20 ft | 20 kts | 207° |
| 2026-05-05 12:52 | -27.39041 | 153.12136 | 20 ft | 11 kts | 258° |
| 2026-05-05 12:53 | -27.39013 | 153.12048 | 20 ft | 13 kts | 297° |
| 2026-05-05 12:53 | -27.38962 | 153.11953 | 21 ft | 15 kts | 297° |
| 2026-05-05 12:53 | -27.38925 | 153.11911 | 20 ft | 7 kts | 355° |
| 2026-05-05 12:53 | -27.38882 | 153.11916 | 20 ft | 3 kts | 7° |
| 2026-05-05 12:54 | -27.38880 | 153.11916 | 20 ft | 0 kts | 8° |